createdAt,value
2022-12-23T16:45:07.028Z,14.91
2022-12-23T16:47:35.295Z,14.84
2022-12-23T16:50:02.081Z,14.47
2022-12-23T16:52:29.408Z,14.72
2022-12-23T16:54:56.039Z,14.45
2022-12-23T16:57:22.672Z,14.22
2022-12-23T16:59:49.476Z,14.13
2022-12-23T17:02:16.242Z,14.16
2022-12-23T17:04:43.335Z,14.12
2022-12-23T17:07:10.124Z,14.22
2022-12-23T17:09:36.872Z,14.12
2022-12-23T17:12:03.537Z,13.69
2022-12-23T17:14:30.111Z,13.63
2022-12-23T19:04:37.488Z,14.38
2022-12-23T19:07:07.058Z,14.41
2022-12-23T19:09:34.641Z,14.06
2022-12-23T19:12:01.089Z,14.30
2022-12-23T19:14:27.887Z,13.70
2022-12-23T19:16:57.524Z,13.97
2022-12-23T19:19:26.619Z,14.35
2022-12-23T19:21:54.181Z,14.02
2022-12-23T19:24:20.849Z,13.78
2022-12-23T19:40:39.028Z,15.18
2022-12-23T19:43:06.097Z,15.88
2022-12-23T19:45:34.107Z,14.67
2022-12-23T20:07:45.585Z,15.45
2022-12-23T20:10:13.498Z,15.68
2022-12-23T20:12:43.377Z,13.86
2022-12-23T20:15:13.194Z,13.06
2022-12-23T20:17:40.011Z,12.76
2022-12-23T20:23:00.866Z,12.49
2022-12-23T20:44:40.605Z,13.39
2022-12-23T20:47:09.623Z,14.10
2022-12-23T20:49:36.410Z,14.17
2022-12-23T20:52:07.929Z,15.14
2022-12-23T20:54:38.674Z,15.30
2022-12-23T20:57:19.796Z,15.65
2022-12-23T21:00:29.982Z,15.24
2022-12-23T21:05:44.220Z,16.04
2022-12-23T21:08:11.738Z,15.68
2022-12-23T21:10:38.892Z,16.21
2022-12-23T21:15:56.901Z,16.23
2022-12-23T21:21:09.805Z,14.88
2022-12-23T21:23:39.385Z,14.65
2022-12-23T21:26:07.242Z,14.60
2022-12-23T21:28:35.828Z,14.81
2022-12-23T21:36:46.474Z,14.61
2022-12-23T21:39:14.144Z,14.47
2022-12-23T21:47:28.652Z,13.57
2022-12-23T22:08:31.685Z,13.67
2022-12-23T22:11:03.236Z,13.93
2022-12-23T22:16:29.644Z,13.82
2022-12-23T22:22:26.048Z,13.31
2022-12-23T22:24:55.967Z,13.99
2022-12-23T22:27:25.707Z,14.25
2022-12-23T22:29:52.485Z,13.92
2022-12-23T22:32:19.428Z,13.59
2022-12-23T22:34:49.953Z,13.26
2022-12-23T22:45:51.252Z,13.29
2022-12-23T22:48:50.627Z,13.38
2022-12-23T22:51:46.463Z,13.28
2022-12-23T22:54:31.201Z,13.85
2022-12-23T22:57:13.062Z,13.84
2022-12-23T22:59:48.810Z,13.23
2022-12-23T23:02:23.056Z,13.42
2022-12-23T23:13:11.427Z,13.03
2022-12-23T23:15:50.657Z,13.12
2022-12-23T23:18:29.482Z,12.86
2022-12-23T23:21:09.419Z,12.49
2022-12-23T23:23:42.105Z,12.45
2022-12-23T23:29:06.924Z,12.77
2022-12-23T23:32:06.912Z,12.97
2022-12-23T23:37:51.255Z,13.14
2022-12-23T23:40:25.818Z,13.44
2022-12-23T23:43:03.500Z,13.50
2022-12-23T23:48:29.813Z,13.31
2022-12-23T23:53:52.990Z,12.99
2022-12-23T23:56:37.829Z,12.91
